Sao Miguel do Aleixo, Brazil
Current Conditions -  °F | °C
As of 7:00 AM on Tuesday 27 Jan 2015 (Local Time) from SBAR Reporting Station
Scattered Clouds Scattered Clouds  
Wind Chill: 79°   Ceiling: Unl
Heat Index: 82°   Visibility: 6mi
Dew Point: 72°   Wind: 3mph
Humidity: 78%   Direction: 330°NNW
Pressure: 29.97"   Gusts: NA
Location:  10.39°S, 37.38°W
Report Text: SBAR 271000Z 33003KT 9999 SCT017 26/22 Q1015
Loading
Personal Weather Stations






























Interactive Weather Map New forecast layout! Learn more

10-Day Weather Forecast

Advertisements
Track Severe Weather on mobile